sensor_id;sensor_type;location;lat;lon;timestamp;temperature;humidity
68691;DHT22;55675;49.588;8.640;2023-05-10T00:00:37;16.30;99.60
68691;DHT22;55675;49.588;8.640;2023-05-10T00:03:02;16.30;99.60
68691;DHT22;55675;49.588;8.640;2023-05-10T00:05:30;16.40;99.60
68691;DHT22;55675;49.588;8.640;2023-05-10T00:07:56;16.50;99.60
68691;DHT22;55675;49.588;8.640;2023-05-10T00:10:21;16.50;99.40
68691;DHT22;55675;49.588;8.640;2023-05-10T00:12:47;16.50;99.30
68691;DHT22;55675;49.588;8.640;2023-05-10T00:15:12;16.50;99.20
68691;DHT22;55675;49.588;8.640;2023-05-10T00:17:38;16.50;99.30
68691;DHT22;55675;49.588;8.640;2023-05-10T00:20:04;16.50;99.20
68691;DHT22;55675;49.588;8.640;2023-05-10T00:22:31;16.50;99.30
68691;DHT22;55675;49.588;8.640;2023-05-10T00:24:57;16.50;99.30
68691;DHT22;55675;49.588;8.640;2023-05-10T00:27:22;16.60;99.60
68691;DHT22;55675;49.588;8.640;2023-05-10T00:29:48;16.50;99.20
68691;DHT22;55675;49.588;8.640;2023-05-10T00:32:13;16.50;99.20
68691;DHT22;55675;49.588;8.640;2023-05-10T00:34:39;16.50;99.30
68691;DHT22;55675;49.588;8.640;2023-05-10T00:37:05;16.50;99.30
68691;DHT22;55675;49.588;8.640;2023-05-10T00:39:30;16.50;99.30
68691;DHT22;55675;49.588;8.640;2023-05-10T00:41:56;16.50;99.20
68691;DHT22;55675;49.588;8.640;2023-05-10T00:44:21;16.50;99.10
68691;DHT22;55675;49.588;8.640;2023-05-10T00:46:47;16.50;99.00
68691;DHT22;55675;49.588;8.640;2023-05-10T00:49:13;16.40;99.00
68691;DHT22;55675;49.588;8.640;2023-05-10T00:51:38;16.30;99.00
68691;DHT22;55675;49.588;8.640;2023-05-10T00:54:04;16.30;99.10
68691;DHT22;55675;49.588;8.640;2023-05-10T00:56:30;16.20;99.10
68691;DHT22;55675;49.588;8.640;2023-05-10T00:58:56;16.20;99.20
68691;DHT22;55675;49.588;8.640;2023-05-10T01:01:21;16.10;99.20
68691;DHT22;55675;49.588;8.640;2023-05-10T01:03:47;16.10;99.20
68691;DHT22;55675;49.588;8.640;2023-05-10T01:06:13;16.10;99.30
68691;DHT22;55675;49.588;8.640;2023-05-10T01:08:38;16.10;99.30
68691;DHT22;55675;49.588;8.640;2023-05-10T01:11:04;16.20;99.20
68691;DHT22;55675;49.588;8.640;2023-05-10T01:13:33;16.20;99.20
68691;DHT22;55675;49.588;8.640;2023-05-10T01:15:59;16.20;99.20
68691;DHT22;55675;49.588;8.640;2023-05-10T01:18:27;16.20;99.10
68691;DHT22;55675;49.588;8.640;2023-05-10T01:21:04;16.30;99.40
68691;DHT22;55675;49.588;8.640;2023-05-10T01:23:45;16.30;99.40
68691;DHT22;55675;49.588;8.640;2023-05-10T01:26:33;16.30;99.10
68691;DHT22;55675;49.588;8.640;2023-05-10T01:29:11;16.30;99.20
68691;DHT22;55675;49.588;8.640;2023-05-10T01:34:34;16.40;99.30
68691;DHT22;55675;49.588;8.640;2023-05-10T01:37:07;16.40;99.30
68691;DHT22;55675;49.588;8.640;2023-05-10T01:40:08;16.40;99.30
68691;DHT22;55675;49.588;8.640;2023-05-10T01:42:26;16.40;99.30
68691;DHT22;55675;49.588;8.640;2023-05-10T01:47:20;16.40;99.50
68691;DHT22;55675;49.588;8.640;2023-05-10T01:49:54;16.40;99.50
68691;DHT22;55675;49.588;8.640;2023-05-10T01:52:22;16.40;99.50
68691;DHT22;55675;49.588;8.640;2023-05-10T01:55:02;16.40;99.50
68691;DHT22;55675;49.588;8.640;2023-05-10T01:57:30;16.40;99.60
68691;DHT22;55675;49.588;8.640;2023-05-10T01:59:57;16.40;99.50
68691;DHT22;55675;49.588;8.640;2023-05-10T02:02:23;16.40;99.50
68691;DHT22;55675;49.588;8.640;2023-05-10T02:04:50;16.30;99.60
68691;DHT22;55675;49.588;8.640;2023-05-10T02:07:16;16.40;99.50
68691;DHT22;55675;49.588;8.640;2023-05-10T02:09:44;16.40;99.60
68691;DHT22;55675;49.588;8.640;2023-05-10T02:12:12;16.40;99.50
68691;DHT22;55675;49.588;8.640;2023-05-10T02:14:38;16.40;99.60
68691;DHT22;55675;49.588;8.640;2023-05-10T02:17:05;16.40;99.60
68691;DHT22;55675;49.588;8.640;2023-05-10T02:19:32;16.40;99.60
68691;DHT22;55675;49.588;8.640;2023-05-10T02:21:59;16.40;99.50
68691;DHT22;55675;49.588;8.640;2023-05-10T02:24:25;16.40;99.60
68691;DHT22;55675;49.588;8.640;2023-05-10T02:26:53;16.40;99.90
68691;DHT22;55675;49.588;8.640;2023-05-10T02:29:19;16.40;99.60
68691;DHT22;55675;49.588;8.640;2023-05-10T02:31:45;16.40;99.60
68691;DHT22;55675;49.588;8.640;2023-05-10T02:34:11;16.40;99.50
68691;DHT22;55675;49.588;8.640;2023-05-10T02:36:37;16.30;99.50
68691;DHT22;55675;49.588;8.640;2023-05-10T02:39:03;16.30;99.60
68691;DHT22;55675;49.588;8.640;2023-05-10T02:41:30;16.30;99.60
68691;DHT22;55675;49.588;8.640;2023-05-10T02:43:59;16.30;99.60
68691;DHT22;55675;49.588;8.640;2023-05-10T02:46:25;16.30;99.60
68691;DHT22;55675;49.588;8.640;2023-05-10T02:48:50;16.30;99.50
68691;DHT22;55675;49.588;8.640;2023-05-10T02:51:16;16.30;99.60
68691;DHT22;55675;49.588;8.640;2023-05-10T02:53:43;16.30;99.50
68691;DHT22;55675;49.588;8.640;2023-05-10T02:56:19;16.30;99.60
68691;DHT22;55675;49.588;8.640;2023-05-10T02:58:46;16.30;99.50
68691;DHT22;55675;49.588;8.640;2023-05-10T03:01:11;16.40;99.50
68691;DHT22;55675;49.588;8.640;2023-05-10T03:03:37;16.40;99.50
68691;DHT22;55675;49.588;8.640;2023-05-10T03:06:02;16.30;99.50
68691;DHT22;55675;49.588;8.640;2023-05-10T03:08:28;16.40;99.50
68691;DHT22;55675;49.588;8.640;2023-05-10T03:14:04;16.30;99.40
68691;DHT22;55675;49.588;8.640;2023-05-10T03:16:36;16.30;99.40
68691;DHT22;55675;49.588;8.640;2023-05-10T03:19:11;16.30;99.50
68691;DHT22;55675;49.588;8.640;2023-05-10T03:21:38;16.30;99.60
68691;DHT22;55675;49.588;8.640;2023-05-10T03:24:06;16.20;99.60
68691;DHT22;55675;49.588;8.640;2023-05-10T03:26:33;16.20;99.60
68691;DHT22;55675;49.588;8.640;2023-05-10T03:28:59;16.20;99.60
68691;DHT22;55675;49.588;8.640;2023-05-10T03:31:25;16.30;99.60
68691;DHT22;55675;49.588;8.640;2023-05-10T03:33:51;16.20;99.50
68691;DHT22;55675;49.588;8.640;2023-05-10T03:36:17;16.30;99.50
68691;DHT22;55675;49.588;8.640;2023-05-10T03:38:43;16.20;99.40
68691;DHT22;55675;49.588;8.640;2023-05-10T03:41:08;16.20;99.40
68691;DHT22;55675;49.588;8.640;2023-05-10T03:43:34;16.20;99.40
68691;DHT22;55675;49.588;8.640;2023-05-10T03:46:01;16.20;99.30
68691;DHT22;55675;49.588;8.640;2023-05-10T03:48:26;16.10;99.30
68691;DHT22;55675;49.588;8.640;2023-05-10T03:50:52;16.10;99.30
68691;DHT22;55675;49.588;8.640;2023-05-10T03:53:17;16.10;99.30
68691;DHT22;55675;49.588;8.640;2023-05-10T03:55:43;16.10;99.30
68691;DHT22;55675;49.588;8.640;2023-05-10T03:58:10;16.20;99.30
68691;DHT22;55675;49.588;8.640;2023-05-10T04:00:36;16.10;99.20
68691;DHT22;55675;49.588;8.640;2023-05-10T04:03:02;16.10;99.20
68691;DHT22;55675;49.588;8.640;2023-05-10T04:05:27;16.10;99.10
68691;DHT22;55675;49.588;8.640;2023-05-10T04:07:53;16.10;99.10
68691;DHT22;55675;49.588;8.640;2023-05-10T04:10:18;16.10;99.10
68691;DHT22;55675;49.588;8.640;2023-05-10T04:12:44;16.00;99.10
68691;DHT22;55675;49.588;8.640;2023-05-10T04:15:09;16.00;99.20
68691;DHT22;55675;49.588;8.640;2023-05-10T04:17:35;15.90;99.20
68691;DHT22;55675;49.588;8.640;2023-05-10T04:20:00;15.90;99.30
68691;DHT22;55675;49.588;8.640;2023-05-10T04:22:26;15.90;99.30
68691;DHT22;55675;49.588;8.640;2023-05-10T04:24:52;15.90;99.40
68691;DHT22;55675;49.588;8.640;2023-05-10T04:27:18;15.90;99.40
68691;DHT22;55675;49.588;8.640;2023-05-10T04:29:43;15.90;99.50
68691;DHT22;55675;49.588;8.640;2023-05-10T04:32:09;15.90;99.50
68691;DHT22;55675;49.588;8.640;2023-05-10T04:34:35;15.90;99.50
68691;DHT22;55675;49.588;8.640;2023-05-10T04:37:01;15.90;99.50
68691;DHT22;55675;49.588;8.640;2023-05-10T04:39:26;15.90;99.50
68691;DHT22;55675;49.588;8.640;2023-05-10T04:41:52;15.90;99.60
68691;DHT22;55675;49.588;8.640;2023-05-10T04:44:17;15.90;99.60
68691;DHT22;55675;49.588;8.640;2023-05-10T04:46:42;15.90;99.60
68691;DHT22;55675;49.588;8.640;2023-05-10T04:49:08;15.90;99.60
68691;DHT22;55675;49.588;8.640;2023-05-10T04:51:33;15.90;99.70
68691;DHT22;55675;49.588;8.640;2023-05-10T04:53:59;15.90;99.70
68691;DHT22;55675;49.588;8.640;2023-05-10T04:56:24;16.00;99.60
68691;DHT22;55675;49.588;8.640;2023-05-10T04:58:50;16.00;99.70
68691;DHT22;55675;49.588;8.640;2023-05-10T05:01:15;16.00;99.60
68691;DHT22;55675;49.588;8.640;2023-05-10T05:03:41;16.00;99.60
68691;DHT22;55675;49.588;8.640;2023-05-10T05:06:07;16.10;99.60
68691;DHT22;55675;49.588;8.640;2023-05-10T05:08:33;16.10;99.50
68691;DHT22;55675;49.588;8.640;2023-05-10T05:10:58;16.20;99.50
68691;DHT22;55675;49.588;8.640;2023-05-10T05:13:24;16.20;99.40
68691;DHT22;55675;49.588;8.640;2023-05-10T05:15:50;16.20;99.30
68691;DHT22;55675;49.588;8.640;2023-05-10T05:18:15;16.20;99.30
68691;DHT22;55675;49.588;8.640;2023-05-10T05:20:40;16.20;99.20
68691;DHT22;55675;49.588;8.640;2023-05-10T05:23:06;16.30;99.20
68691;DHT22;55675;49.588;8.640;2023-05-10T05:25:31;16.30;99.30
68691;DHT22;55675;49.588;8.640;2023-05-10T05:27:57;16.30;99.30
68691;DHT22;55675;49.588;8.640;2023-05-10T05:30:22;16.40;99.30
68691;DHT22;55675;49.588;8.640;2023-05-10T05:32:48;16.40;99.30
68691;DHT22;55675;49.588;8.640;2023-05-10T05:35:13;16.50;99.10
68691;DHT22;55675;49.588;8.640;2023-05-10T05:37:39;16.50;99.10
68691;DHT22;55675;49.588;8.640;2023-05-10T05:40:04;16.60;99.10
68691;DHT22;55675;49.588;8.640;2023-05-10T05:42:31;16.60;99.00
68691;DHT22;55675;49.588;8.640;2023-05-10T05:44:56;16.60;98.90
68691;DHT22;55675;49.588;8.640;2023-05-10T05:47:21;16.60;98.90
68691;DHT22;55675;49.588;8.640;2023-05-10T05:49:47;16.60;98.70
68691;DHT22;55675;49.588;8.640;2023-05-10T05:52:12;16.70;98.70
68691;DHT22;55675;49.588;8.640;2023-05-10T05:54:38;16.70;98.60
68691;DHT22;55675;49.588;8.640;2023-05-10T05:57:04;16.70;98.60
68691;DHT22;55675;49.588;8.640;2023-05-10T05:59:29;16.70;98.60
68691;DHT22;55675;49.588;8.640;2023-05-10T06:01:55;16.70;98.50
68691;DHT22;55675;49.588;8.640;2023-05-10T06:04:20;16.70;98.60
68691;DHT22;55675;49.588;8.640;2023-05-10T06:06:46;16.70;98.60
68691;DHT22;55675;49.588;8.640;2023-05-10T06:09:11;16.60;98.60
68691;DHT22;55675;49.588;8.640;2023-05-10T06:11:37;16.70;98.60
68691;DHT22;55675;49.588;8.640;2023-05-10T06:14:02;16.70;98.60
68691;DHT22;55675;49.588;8.640;2023-05-10T06:16:29;16.70;98.70
68691;DHT22;55675;49.588;8.640;2023-05-10T06:18:55;16.70;98.70
68691;DHT22;55675;49.588;8.640;2023-05-10T06:21:20;16.80;98.70
68691;DHT22;55675;49.588;8.640;2023-05-10T06:23:46;16.80;98.70
68691;DHT22;55675;49.588;8.640;2023-05-10T06:26:11;16.90;98.60
68691;DHT22;55675;49.588;8.640;2023-05-10T06:28:37;17.00;98.50
68691;DHT22;55675;49.588;8.640;2023-05-10T06:31:05;17.10;98.20
68691;DHT22;55675;49.588;8.640;2023-05-10T06:33:31;17.10;98.10
68691;DHT22;55675;49.588;8.640;2023-05-10T06:35:57;17.20;97.90
68691;DHT22;55675;49.588;8.640;2023-05-10T06:38:22;17.20;97.70
68691;DHT22;55675;49.588;8.640;2023-05-10T06:40:48;17.30;97.70
68691;DHT22;55675;49.588;8.640;2023-05-10T06:43:13;17.40;97.50
68691;DHT22;55675;49.588;8.640;2023-05-10T06:45:39;17.50;97.30
68691;DHT22;55675;49.588;8.640;2023-05-10T06:48:04;17.60;97.40
68691;DHT22;55675;49.588;8.640;2023-05-10T06:50:30;17.60;96.80
68691;DHT22;55675;49.588;8.640;2023-05-10T06:52:56;17.60;96.90
68691;DHT22;55675;49.588;8.640;2023-05-10T06:55:21;17.70;96.80
68691;DHT22;55675;49.588;8.640;2023-05-10T06:57:47;17.80;96.50
68691;DHT22;55675;49.588;8.640;2023-05-10T07:00:13;17.80;96.60
68691;DHT22;55675;49.588;8.640;2023-05-10T07:02:38;17.80;96.00
68691;DHT22;55675;49.588;8.640;2023-05-10T07:05:04;17.70;95.70
68691;DHT22;55675;49.588;8.640;2023-05-10T07:07:30;17.60;95.80
68691;DHT22;55675;49.588;8.640;2023-05-10T07:09:55;17.60;96.00
68691;DHT22;55675;49.588;8.640;2023-05-10T07:12:22;17.60;95.90
68691;DHT22;55675;49.588;8.640;2023-05-10T07:14:48;17.60;96.00
68691;DHT22;55675;49.588;8.640;2023-05-10T07:17:13;17.60;96.20
68691;DHT22;55675;49.588;8.640;2023-05-10T07:19:39;17.60;96.10
68691;DHT22;55675;49.588;8.640;2023-05-10T07:22:04;17.60;96.10
68691;DHT22;55675;49.588;8.640;2023-05-10T07:24:30;17.60;96.20
68691;DHT22;55675;49.588;8.640;2023-05-10T07:26:56;17.60;96.20
68691;DHT22;55675;49.588;8.640;2023-05-10T07:29:21;17.70;96.40
68691;DHT22;55675;49.588;8.640;2023-05-10T07:31:47;17.70;96.10
68691;DHT22;55675;49.588;8.640;2023-05-10T07:34:12;17.80;96.00
68691;DHT22;55675;49.588;8.640;2023-05-10T07:36:38;18.00;96.10
68691;DHT22;55675;49.588;8.640;2023-05-10T07:39:03;18.20;96.10
68691;DHT22;55675;49.588;8.640;2023-05-10T07:41:29;18.40;95.70
68691;DHT22;55675;49.588;8.640;2023-05-10T07:43:54;18.50;95.30
68691;DHT22;55675;49.588;8.640;2023-05-10T07:46:19;18.70;95.20
68691;DHT22;55675;49.588;8.640;2023-05-10T07:48:45;18.90;94.90
68691;DHT22;55675;49.588;8.640;2023-05-10T07:51:11;19.00;94.40
68691;DHT22;55675;49.588;8.640;2023-05-10T07:53:37;19.20;94.20
68691;DHT22;55675;49.588;8.640;2023-05-10T07:56:23;19.40;94.00
68691;DHT22;55675;49.588;8.640;2023-05-10T07:58:48;19.60;93.70
68691;DHT22;55675;49.588;8.640;2023-05-10T08:01:14;19.80;92.90
68691;DHT22;55675;49.588;8.640;2023-05-10T08:03:39;19.90;92.30
68691;DHT22;55675;49.588;8.640;2023-05-10T08:06:05;20.00;91.70
68691;DHT22;55675;49.588;8.640;2023-05-10T08:08:31;20.10;91.50
68691;DHT22;55675;49.588;8.640;2023-05-10T08:10:56;20.20;91.40
68691;DHT22;55675;49.588;8.640;2023-05-10T08:13:22;20.30;91.10
68691;DHT22;55675;49.588;8.640;2023-05-10T08:15:47;20.10;91.40
68691;DHT22;55675;49.588;8.640;2023-05-10T08:18:13;20.20;90.30
68691;DHT22;55675;49.588;8.640;2023-05-10T08:20:38;20.30;90.20
68691;DHT22;55675;49.588;8.640;2023-05-10T08:23:04;20.40;89.60
68691;DHT22;55675;49.588;8.640;2023-05-10T08:25:31;20.40;87.10
68691;DHT22;55675;49.588;8.640;2023-05-10T08:27:56;20.50;88.10
68691;DHT22;55675;49.588;8.640;2023-05-10T08:30:22;20.60;88.20
68691;DHT22;55675;49.588;8.640;2023-05-10T08:32:48;20.80;88.00
68691;DHT22;55675;49.588;8.640;2023-05-10T08:35:13;21.00;88.10
68691;DHT22;55675;49.588;8.640;2023-05-10T08:37:39;21.10;84.80
68691;DHT22;55675;49.588;8.640;2023-05-10T08:40:05;21.20;83.50
68691;DHT22;55675;49.588;8.640;2023-05-10T08:42:34;21.20;81.00
68691;DHT22;55675;49.588;8.640;2023-05-10T08:45:02;21.20;81.50
68691;DHT22;55675;49.588;8.640;2023-05-10T08:47:29;21.30;82.70
68691;DHT22;55675;49.588;8.640;2023-05-10T08:49:55;21.40;83.60
68691;DHT22;55675;49.588;8.640;2023-05-10T08:52:23;21.50;84.20
68691;DHT22;55675;49.588;8.640;2023-05-10T08:54:50;21.60;82.70
68691;DHT22;55675;49.588;8.640;2023-05-10T08:57:15;21.70;82.30
68691;DHT22;55675;49.588;8.640;2023-05-10T08:59:41;21.70;81.10
68691;DHT22;55675;49.588;8.640;2023-05-10T09:02:09;21.80;81.40
68691;DHT22;55675;49.588;8.640;2023-05-10T09:04:35;21.90;82.00
68691;DHT22;55675;49.588;8.640;2023-05-10T09:07:01;21.80;78.40
68691;DHT22;55675;49.588;8.640;2023-05-10T09:09:27;21.80;78.90
68691;DHT22;55675;49.588;8.640;2023-05-10T09:11:53;21.90;78.70
68691;DHT22;55675;49.588;8.640;2023-05-10T09:14:19;21.80;79.60
68691;DHT22;55675;49.588;8.640;2023-05-10T09:16:45;21.70;79.40
68691;DHT22;55675;49.588;8.640;2023-05-10T09:19:11;21.50;78.10
68691;DHT22;55675;49.588;8.640;2023-05-10T09:21:37;21.30;78.30
68691;DHT22;55675;49.588;8.640;2023-05-10T09:24:07;21.10;77.80
68691;DHT22;55675;49.588;8.640;2023-05-10T09:26:34;20.80;77.90
68691;DHT22;55675;49.588;8.640;2023-05-10T09:29:01;20.60;79.40
68691;DHT22;55675;49.588;8.640;2023-05-10T09:32:03;20.50;81.20
68691;DHT22;55675;49.588;8.640;2023-05-10T09:34:30;20.20;82.40
68691;DHT22;55675;49.588;8.640;2023-05-10T09:36:57;20.00;84.10
68691;DHT22;55675;49.588;8.640;2023-05-10T09:39:33;19.90;85.60
68691;DHT22;55675;49.588;8.640;2023-05-10T09:42:09;19.70;85.20
68691;DHT22;55675;49.588;8.640;2023-05-10T09:44:35;19.60;87.00
68691;DHT22;55675;49.588;8.640;2023-05-10T09:47:02;19.60;87.70
68691;DHT22;55675;49.588;8.640;2023-05-10T09:49:28;19.70;87.70
68691;DHT22;55675;49.588;8.640;2023-05-10T09:52:02;20.00;87.90
68691;DHT22;55675;49.588;8.640;2023-05-10T09:54:28;20.30;87.60
68691;DHT22;55675;49.588;8.640;2023-05-10T09:56:53;20.60;87.00
68691;DHT22;55675;49.588;8.640;2023-05-10T09:59:19;20.80;86.20
68691;DHT22;55675;49.588;8.640;2023-05-10T10:02:05;21.20;85.40
68691;DHT22;55675;49.588;8.640;2023-05-10T10:04:31;21.50;85.70
68691;DHT22;55675;49.588;8.640;2023-05-10T10:07:04;21.70;85.10
68691;DHT22;55675;49.588;8.640;2023-05-10T10:09:31;21.90;81.20
68691;DHT22;55675;49.588;8.640;2023-05-10T10:11:57;22.10;80.70
68691;DHT22;55675;49.588;8.640;2023-05-10T10:14:23;22.00;79.40
68691;DHT22;55675;49.588;8.640;2023-05-10T10:16:50;21.90;75.10
68691;DHT22;55675;49.588;8.640;2023-05-10T10:19:20;21.60;73.70
68691;DHT22;55675;49.588;8.640;2023-05-10T10:21:47;21.40;72.90
68691;DHT22;55675;49.588;8.640;2023-05-10T10:24:12;21.20;73.60
68691;DHT22;55675;49.588;8.640;2023-05-10T10:26:38;20.90;74.90
68691;DHT22;55675;49.588;8.640;2023-05-10T10:29:36;20.70;73.70
68691;DHT22;55675;49.588;8.640;2023-05-10T10:32:28;20.40;73.80
68691;DHT22;55675;49.588;8.640;2023-05-10T10:34:55;19.90;75.00
68691;DHT22;55675;49.588;8.640;2023-05-10T10:37:21;19.60;76.50
68691;DHT22;55675;49.588;8.640;2023-05-10T10:39:49;19.30;78.00
68691;DHT22;55675;49.588;8.640;2023-05-10T10:42:44;19.10;80.70
68691;DHT22;55675;49.588;8.640;2023-05-10T10:45:11;18.90;81.30
68691;DHT22;55675;49.588;8.640;2023-05-10T10:47:37;19.00;81.40
68691;DHT22;55675;49.588;8.640;2023-05-10T10:50:05;19.10;79.90
68691;DHT22;55675;49.588;8.640;2023-05-10T10:55:14;19.40;77.40
68691;DHT22;55675;49.588;8.640;2023-05-10T11:00:35;20.00;76.70
68691;DHT22;55675;49.588;8.640;2023-05-10T11:08:11;20.50;71.20
68691;DHT22;55675;49.588;8.640;2023-05-10T11:10:37;20.60;69.90
68691;DHT22;55675;49.588;8.640;2023-05-10T11:13:09;20.70;70.70
68691;DHT22;55675;49.588;8.640;2023-05-10T11:15:39;20.80;66.70
68691;DHT22;55675;49.588;8.640;2023-05-10T11:18:19;20.80;65.60
68691;DHT22;55675;49.588;8.640;2023-05-10T11:20:56;20.80;64.70
68691;DHT22;55675;49.588;8.640;2023-05-10T11:23:22;20.70;63.90
68691;DHT22;55675;49.588;8.640;2023-05-10T11:25:49;20.80;65.50
68691;DHT22;55675;49.588;8.640;2023-05-10T11:28:17;20.90;66.10
68691;DHT22;55675;49.588;8.640;2023-05-10T11:30:44;21.00;65.30
68691;DHT22;55675;49.588;8.640;2023-05-10T11:33:16;21.10;65.80
68691;DHT22;55675;49.588;8.640;2023-05-10T11:35:42;21.10;65.30
68691;DHT22;55675;49.588;8.640;2023-05-10T11:38:08;21.10;64.50
68691;DHT22;55675;49.588;8.640;2023-05-10T11:40:35;21.00;65.20
68691;DHT22;55675;49.588;8.640;2023-05-10T11:43:02;21.10;65.00
68691;DHT22;55675;49.588;8.640;2023-05-10T11:45:28;21.10;64.10
68691;DHT22;55675;49.588;8.640;2023-05-10T11:47:55;21.00;64.90
68691;DHT22;55675;49.588;8.640;2023-05-10T11:50:22;20.80;64.40
68691;DHT22;55675;49.588;8.640;2023-05-10T11:52:52;20.50;63.90
68691;DHT22;55675;49.588;8.640;2023-05-10T11:55:18;20.40;64.60
68691;DHT22;55675;49.588;8.640;2023-05-10T11:57:44;20.30;65.70
68691;DHT22;55675;49.588;8.640;2023-05-10T12:00:12;20.30;64.70
68691;DHT22;55675;49.588;8.640;2023-05-10T12:02:38;20.30;64.10
68691;DHT22;55675;49.588;8.640;2023-05-10T12:05:04;20.40;64.20
68691;DHT22;55675;49.588;8.640;2023-05-10T12:07:31;20.70;63.60
68691;DHT22;55675;49.588;8.640;2023-05-10T12:10:09;21.00;64.30
68691;DHT22;55675;49.588;8.640;2023-05-10T12:12:41;21.30;61.50
68691;DHT22;55675;49.588;8.640;2023-05-10T12:15:22;21.60;59.10
68691;DHT22;55675;49.588;8.640;2023-05-10T12:17:49;21.70;57.50
68691;DHT22;55675;49.588;8.640;2023-05-10T12:20:19;21.90;58.20
68691;DHT22;55675;49.588;8.640;2023-05-10T12:22:57;22.10;58.30
68691;DHT22;55675;49.588;8.640;2023-05-10T12:25:30;22.40;57.70
68691;DHT22;55675;49.588;8.640;2023-05-10T12:27:57;22.50;55.80
68691;DHT22;55675;49.588;8.640;2023-05-10T12:30:27;22.70;57.40
68691;DHT22;55675;49.588;8.640;2023-05-10T12:32:53;22.60;55.30
68691;DHT22;55675;49.588;8.640;2023-05-10T12:35:19;22.50;55.50
68691;DHT22;55675;49.588;8.640;2023-05-10T12:37:50;22.70;56.50
68691;DHT22;55675;49.588;8.640;2023-05-10T12:40:16;22.50;57.30
68691;DHT22;55675;49.588;8.640;2023-05-10T12:42:42;22.50;59.10
68691;DHT22;55675;49.588;8.640;2023-05-10T12:45:09;22.20;58.70
68691;DHT22;55675;49.588;8.640;2023-05-10T12:47:34;21.80;57.90
68691;DHT22;55675;49.588;8.640;2023-05-10T12:50:01;21.40;59.30
68691;DHT22;55675;49.588;8.640;2023-05-10T12:52:28;21.00;59.10
68691;DHT22;55675;49.588;8.640;2023-05-10T12:54:54;20.70;60.40
68691;DHT22;55675;49.588;8.640;2023-05-10T12:57:22;20.50;61.80
68691;DHT22;55675;49.588;8.640;2023-05-10T12:59:48;20.40;61.10
68691;DHT22;55675;49.588;8.640;2023-05-10T13:02:14;20.60;62.80
68691;DHT22;55675;49.588;8.640;2023-05-10T13:04:40;21.10;62.30
68691;DHT22;55675;49.588;8.640;2023-05-10T13:07:07;21.60;62.00
68691;DHT22;55675;49.588;8.640;2023-05-10T13:09:32;22.30;60.80
68691;DHT22;55675;49.588;8.640;2023-05-10T13:11:58;22.70;58.30
68691;DHT22;55675;49.588;8.640;2023-05-10T13:14:24;23.10;56.40
68691;DHT22;55675;49.588;8.640;2023-05-10T13:16:50;23.60;54.90
68691;DHT22;55675;49.588;8.640;2023-05-10T13:19:16;23.90;51.40
68691;DHT22;55675;49.588;8.640;2023-05-10T13:21:42;24.10;53.30
68691;DHT22;55675;49.588;8.640;2023-05-10T13:24:10;24.40;50.00
68691;DHT22;55675;49.588;8.640;2023-05-10T13:26:36;24.40;50.70
68691;DHT22;55675;49.588;8.640;2023-05-10T13:29:02;24.40;50.50
68691;DHT22;55675;49.588;8.640;2023-05-10T13:31:27;24.60;49.50
68691;DHT22;55675;49.588;8.640;2023-05-10T13:33:53;24.70;49.40
68691;DHT22;55675;49.588;8.640;2023-05-10T13:36:18;24.80;50.00
68691;DHT22;55675;49.588;8.640;2023-05-10T13:38:44;24.70;48.90
68691;DHT22;55675;49.588;8.640;2023-05-10T13:41:10;24.60;48.30
68691;DHT22;55675;49.588;8.640;2023-05-10T13:43:35;24.50;49.40
68691;DHT22;55675;49.588;8.640;2023-05-10T13:46:01;24.50;49.00
68691;DHT22;55675;49.588;8.640;2023-05-10T13:48:28;24.70;48.70
68691;DHT22;55675;49.588;8.640;2023-05-10T13:50:53;24.80;48.70
68691;DHT22;55675;49.588;8.640;2023-05-10T13:53:19;24.70;49.80
68691;DHT22;55675;49.588;8.640;2023-05-10T13:55:44;25.00;49.90
68691;DHT22;55675;49.588;8.640;2023-05-10T13:58:10;25.40;50.50
68691;DHT22;55675;49.588;8.640;2023-05-10T14:00:36;26.20;47.90
68691;DHT22;55675;49.588;8.640;2023-05-10T14:03:01;27.00;44.80
68691;DHT22;55675;49.588;8.640;2023-05-10T14:05:27;27.60;42.60
68691;DHT22;55675;49.588;8.640;2023-05-10T14:07:53;27.60;40.20
68691;DHT22;55675;49.588;8.640;2023-05-10T14:10:18;27.10;39.80
68691;DHT22;55675;49.588;8.640;2023-05-10T14:12:44;26.90;41.50
68691;DHT22;55675;49.588;8.640;2023-05-10T14:15:10;27.00;39.60
68691;DHT22;55675;49.588;8.640;2023-05-10T14:17:36;26.90;39.90
68691;DHT22;55675;49.588;8.640;2023-05-10T14:20:02;27.30;42.60
68691;DHT22;55675;49.588;8.640;2023-05-10T14:22:29;27.20;41.80
68691;DHT22;55675;49.588;8.640;2023-05-10T14:24:54;27.30;41.60
68691;DHT22;55675;49.588;8.640;2023-05-10T14:27:20;27.20;41.30
68691;DHT22;55675;49.588;8.640;2023-05-10T14:29:47;27.30;40.60
68691;DHT22;55675;49.588;8.640;2023-05-10T14:32:13;26.90;41.00
68691;DHT22;55675;49.588;8.640;2023-05-10T14:34:38;26.80;42.20
68691;DHT22;55675;49.588;8.640;2023-05-10T14:37:04;27.10;41.70
68691;DHT22;55675;49.588;8.640;2023-05-10T14:39:29;27.10;42.30
68691;DHT22;55675;49.588;8.640;2023-05-10T14:41:55;28.00;42.50
68691;DHT22;55675;49.588;8.640;2023-05-10T14:44:21;29.10;41.10
68691;DHT22;55675;49.588;8.640;2023-05-10T14:46:46;29.50;37.50
68691;DHT22;55675;49.588;8.640;2023-05-10T14:49:13;29.60;36.30
68691;DHT22;55675;49.588;8.640;2023-05-10T14:51:39;29.50;34.40
68691;DHT22;55675;49.588;8.640;2023-05-10T14:54:04;29.10;36.50
68691;DHT22;55675;49.588;8.640;2023-05-10T14:56:30;29.20;35.50
68691;DHT22;55675;49.588;8.640;2023-05-10T14:58:55;29.10;36.30
68691;DHT22;55675;49.588;8.640;2023-05-10T15:01:21;28.80;35.70
68691;DHT22;55675;49.588;8.640;2023-05-10T15:03:47;28.40;36.50
68691;DHT22;55675;49.588;8.640;2023-05-10T15:06:14;28.20;36.60
68691;DHT22;55675;49.588;8.640;2023-05-10T15:08:41;28.00;37.00
68691;DHT22;55675;49.588;8.640;2023-05-10T15:11:06;28.10;37.40
68691;DHT22;55675;49.588;8.640;2023-05-10T15:13:32;28.00;37.10
68691;DHT22;55675;49.588;8.640;2023-05-10T15:15:57;28.20;38.20
68691;DHT22;55675;49.588;8.640;2023-05-10T15:18:23;28.30;38.40
68691;DHT22;55675;49.588;8.640;2023-05-10T15:20:49;28.40;37.60
68691;DHT22;55675;49.588;8.640;2023-05-10T15:23:14;28.40;36.80
68691;DHT22;55675;49.588;8.640;2023-05-10T15:25:40;28.20;35.30
68691;DHT22;55675;49.588;8.640;2023-05-10T15:28:05;28.00;36.60
68691;DHT22;55675;49.588;8.640;2023-05-10T15:30:31;27.80;37.30
68691;DHT22;55675;49.588;8.640;2023-05-10T15:32:56;27.60;37.80
68691;DHT22;55675;49.588;8.640;2023-05-10T15:35:22;27.30;37.90
68691;DHT22;55675;49.588;8.640;2023-05-10T15:37:48;27.10;38.60
68691;DHT22;55675;49.588;8.640;2023-05-10T15:40:14;27.20;38.70
68691;DHT22;55675;49.588;8.640;2023-05-10T15:42:40;27.20;38.20
68691;DHT22;55675;49.588;8.640;2023-05-10T15:45:06;27.30;37.70
68691;DHT22;55675;49.588;8.640;2023-05-10T15:47:32;27.30;38.10